sensor_id;sensor_type;location;lat;lon;timestamp;temperature;humidity
16485;DHT22;8353;47.856;12.344;2023-04-15T00:00:02;8.20;99.90
16485;DHT22;8353;47.856;12.344;2023-04-15T00:02:50;8.20;99.90
16485;DHT22;8353;47.856;12.344;2023-04-15T00:05:37;8.20;99.90
16485;DHT22;8353;47.856;12.344;2023-04-15T00:08:24;8.20;99.90
16485;DHT22;8353;47.856;12.344;2023-04-15T00:11:11;8.20;99.90
16485;DHT22;8353;47.856;12.344;2023-04-15T00:13:58;8.20;99.90
16485;DHT22;8353;47.856;12.344;2023-04-15T00:16:47;8.20;99.90
16485;DHT22;8353;47.856;12.344;2023-04-15T00:19:41;8.20;99.90
16485;DHT22;8353;47.856;12.344;2023-04-15T00:22:30;8.20;99.90
16485;DHT22;8353;47.856;12.344;2023-04-15T00:25:17;8.20;99.90
16485;DHT22;8353;47.856;12.344;2023-04-15T00:28:04;8.20;99.90
16485;DHT22;8353;47.856;12.344;2023-04-15T00:30:51;8.20;99.90
16485;DHT22;8353;47.856;12.344;2023-04-15T00:33:37;8.20;99.90
16485;DHT22;8353;47.856;12.344;2023-04-15T00:36:26;8.20;99.90
16485;DHT22;8353;47.856;12.344;2023-04-15T00:39:13;8.30;99.90
16485;DHT22;8353;47.856;12.344;2023-04-15T00:42:01;8.30;99.90
16485;DHT22;8353;47.856;12.344;2023-04-15T00:44:49;8.30;99.90
16485;DHT22;8353;47.856;12.344;2023-04-15T00:47:36;8.40;99.90
16485;DHT22;8353;47.856;12.344;2023-04-15T00:50:24;8.20;99.90
16485;DHT22;8353;47.856;12.344;2023-04-15T00:53:12;8.20;99.90
16485;DHT22;8353;47.856;12.344;2023-04-15T00:55:59;8.30;99.90
16485;DHT22;8353;47.856;12.344;2023-04-15T00:58:47;8.30;99.90
16485;DHT22;8353;47.856;12.344;2023-04-15T01:01:34;8.20;99.90
16485;DHT22;8353;47.856;12.344;2023-04-15T01:04:21;8.30;99.90
16485;DHT22;8353;47.856;12.344;2023-04-15T01:07:09;8.40;99.90
16485;DHT22;8353;47.856;12.344;2023-04-15T01:09:57;8.40;99.90
16485;DHT22;8353;47.856;12.344;2023-04-15T01:12:44;8.50;99.90
16485;DHT22;8353;47.856;12.344;2023-04-15T01:15:31;8.50;99.90
16485;DHT22;8353;47.856;12.344;2023-04-15T01:18:18;8.50;99.90
16485;DHT22;8353;47.856;12.344;2023-04-15T01:21:06;8.40;99.90
16485;DHT22;8353;47.856;12.344;2023-04-15T01:23:54;8.40;99.90
16485;DHT22;8353;47.856;12.344;2023-04-15T01:26:44;8.40;99.90
16485;DHT22;8353;47.856;12.344;2023-04-15T01:29:34;8.30;99.90
16485;DHT22;8353;47.856;12.344;2023-04-15T01:32:22;8.30;99.90
16485;DHT22;8353;47.856;12.344;2023-04-15T01:35:09;8.20;99.90
16485;DHT22;8353;47.856;12.344;2023-04-15T01:38:04;8.30;99.90
16485;DHT22;8353;47.856;12.344;2023-04-15T01:40:51;8.20;99.90
16485;DHT22;8353;47.856;12.344;2023-04-15T01:43:40;8.20;99.90
16485;DHT22;8353;47.856;12.344;2023-04-15T01:46:29;8.20;99.90
16485;DHT22;8353;47.856;12.344;2023-04-15T01:49:17;8.20;99.90
16485;DHT22;8353;47.856;12.344;2023-04-15T01:52:06;8.30;99.90
16485;DHT22;8353;47.856;12.344;2023-04-15T01:54:53;8.30;99.90
16485;DHT22;8353;47.856;12.344;2023-04-15T01:57:44;8.40;99.90
16485;DHT22;8353;47.856;12.344;2023-04-15T02:00:32;8.50;99.90
16485;DHT22;8353;47.856;12.344;2023-04-15T02:03:19;8.60;99.90
16485;DHT22;8353;47.856;12.344;2023-04-15T02:06:07;8.60;99.90
16485;DHT22;8353;47.856;12.344;2023-04-15T02:08:55;8.50;99.90
16485;DHT22;8353;47.856;12.344;2023-04-15T02:11:44;8.50;99.90
16485;DHT22;8353;47.856;12.344;2023-04-15T02:14:33;8.40;99.90
16485;DHT22;8353;47.856;12.344;2023-04-15T02:17:22;8.30;99.90
16485;DHT22;8353;47.856;12.344;2023-04-15T02:20:11;8.40;99.90
16485;DHT22;8353;47.856;12.344;2023-04-15T02:22:59;8.40;99.90
16485;DHT22;8353;47.856;12.344;2023-04-15T02:25:47;8.40;99.90
16485;DHT22;8353;47.856;12.344;2023-04-15T02:28:34;8.40;99.90
16485;DHT22;8353;47.856;12.344;2023-04-15T02:31:22;8.40;99.90
16485;DHT22;8353;47.856;12.344;2023-04-15T02:34:10;8.40;99.90
16485;DHT22;8353;47.856;12.344;2023-04-15T02:37:00;8.30;99.90
16485;DHT22;8353;47.856;12.344;2023-04-15T02:39:48;8.30;99.90
16485;DHT22;8353;47.856;12.344;2023-04-15T02:42:35;8.40;99.90
16485;DHT22;8353;47.856;12.344;2023-04-15T02:45:22;8.40;99.90
16485;DHT22;8353;47.856;12.344;2023-04-15T02:48:12;8.40;99.90
16485;DHT22;8353;47.856;12.344;2023-04-15T02:51:17;8.40;99.90
16485;DHT22;8353;47.856;12.344;2023-04-15T02:54:04;8.50;99.90
16485;DHT22;8353;47.856;12.344;2023-04-15T02:56:51;8.50;99.90
16485;DHT22;8353;47.856;12.344;2023-04-15T02:59:39;8.60;99.90
16485;DHT22;8353;47.856;12.344;2023-04-15T03:02:26;8.60;99.90
16485;DHT22;8353;47.856;12.344;2023-04-15T03:05:13;8.50;99.90
16485;DHT22;8353;47.856;12.344;2023-04-15T03:08:01;8.60;99.90
16485;DHT22;8353;47.856;12.344;2023-04-15T03:10:48;8.60;99.90
16485;DHT22;8353;47.856;12.344;2023-04-15T03:13:36;8.60;99.90
16485;DHT22;8353;47.856;12.344;2023-04-15T03:16:24;8.60;99.90
16485;DHT22;8353;47.856;12.344;2023-04-15T03:19:11;8.60;99.90
16485;DHT22;8353;47.856;12.344;2023-04-15T03:21:57;8.70;99.90
16485;DHT22;8353;47.856;12.344;2023-04-15T03:24:46;8.80;99.90
16485;DHT22;8353;47.856;12.344;2023-04-15T03:27:33;8.80;99.90
16485;DHT22;8353;47.856;12.344;2023-04-15T03:30:19;8.70;99.90
16485;DHT22;8353;47.856;12.344;2023-04-15T03:33:06;8.80;99.90
16485;DHT22;8353;47.856;12.344;2023-04-15T03:35:54;8.70;99.90
16485;DHT22;8353;47.856;12.344;2023-04-15T03:38:41;8.70;99.90
16485;DHT22;8353;47.856;12.344;2023-04-15T03:41:29;8.70;99.90
16485;DHT22;8353;47.856;12.344;2023-04-15T03:44:17;8.70;99.90
16485;DHT22;8353;47.856;12.344;2023-04-15T03:47:05;8.80;99.90
16485;DHT22;8353;47.856;12.344;2023-04-15T03:49:52;8.70;99.90
16485;DHT22;8353;47.856;12.344;2023-04-15T03:52:38;8.80;99.90
16485;DHT22;8353;47.856;12.344;2023-04-15T03:55:25;8.80;99.90
16485;DHT22;8353;47.856;12.344;2023-04-15T03:58:13;8.80;99.90
16485;DHT22;8353;47.856;12.344;2023-04-15T04:01:00;8.80;99.90
16485;DHT22;8353;47.856;12.344;2023-04-15T04:03:47;8.70;99.90
16485;DHT22;8353;47.856;12.344;2023-04-15T04:06:34;8.70;99.90
16485;DHT22;8353;47.856;12.344;2023-04-15T04:09:21;8.70;99.90
16485;DHT22;8353;47.856;12.344;2023-04-15T04:12:08;8.70;99.90
16485;DHT22;8353;47.856;12.344;2023-04-15T04:14:56;8.70;99.90
16485;DHT22;8353;47.856;12.344;2023-04-15T04:17:43;8.60;99.90
16485;DHT22;8353;47.856;12.344;2023-04-15T04:20:30;8.60;99.90
16485;DHT22;8353;47.856;12.344;2023-04-15T04:23:17;8.70;99.90
16485;DHT22;8353;47.856;12.344;2023-04-15T04:26:04;8.70;99.90
16485;DHT22;8353;47.856;12.344;2023-04-15T04:28:51;8.60;99.90
16485;DHT22;8353;47.856;12.344;2023-04-15T04:31:39;8.50;99.90
16485;DHT22;8353;47.856;12.344;2023-04-15T04:34:26;8.60;99.90
16485;DHT22;8353;47.856;12.344;2023-04-15T04:37:13;8.60;99.90
16485;DHT22;8353;47.856;12.344;2023-04-15T04:40:00;8.50;99.90
16485;DHT22;8353;47.856;12.344;2023-04-15T04:42:47;8.50;99.90
16485;DHT22;8353;47.856;12.344;2023-04-15T04:45:34;8.50;99.90
16485;DHT22;8353;47.856;12.344;2023-04-15T04:48:22;8.50;99.90
16485;DHT22;8353;47.856;12.344;2023-04-15T04:51:09;8.50;99.90
16485;DHT22;8353;47.856;12.344;2023-04-15T04:53:56;8.60;99.90
16485;DHT22;8353;47.856;12.344;2023-04-15T04:56:43;8.60;99.90
16485;DHT22;8353;47.856;12.344;2023-04-15T04:59:30;8.60;99.90
16485;DHT22;8353;47.856;12.344;2023-04-15T05:02:16;8.50;99.90
16485;DHT22;8353;47.856;12.344;2023-04-15T05:05:06;8.60;99.90
16485;DHT22;8353;47.856;12.344;2023-04-15T05:07:53;8.60;99.90
16485;DHT22;8353;47.856;12.344;2023-04-15T05:10:40;8.60;99.90
16485;DHT22;8353;47.856;12.344;2023-04-15T05:13:29;8.50;99.90
16485;DHT22;8353;47.856;12.344;2023-04-15T05:16:16;8.50;99.90
16485;DHT22;8353;47.856;12.344;2023-04-15T05:19:04;8.60;99.90
16485;DHT22;8353;47.856;12.344;2023-04-15T05:21:52;8.50;99.90
16485;DHT22;8353;47.856;12.344;2023-04-15T05:24:39;8.40;99.90
16485;DHT22;8353;47.856;12.344;2023-04-15T05:27:26;8.40;99.90
16485;DHT22;8353;47.856;12.344;2023-04-15T05:30:13;8.40;99.90
16485;DHT22;8353;47.856;12.344;2023-04-15T05:33:00;8.40;99.90
16485;DHT22;8353;47.856;12.344;2023-04-15T05:35:47;8.30;99.90
16485;DHT22;8353;47.856;12.344;2023-04-15T05:38:35;8.20;99.90
16485;DHT22;8353;47.856;12.344;2023-04-15T05:41:23;8.10;99.90
16485;DHT22;8353;47.856;12.344;2023-04-15T05:44:09;8.10;99.90
16485;DHT22;8353;47.856;12.344;2023-04-15T05:46:56;8.00;99.90
16485;DHT22;8353;47.856;12.344;2023-04-15T05:49:43;8.00;99.90
16485;DHT22;8353;47.856;12.344;2023-04-15T05:52:30;7.90;99.90
16485;DHT22;8353;47.856;12.344;2023-04-15T05:55:19;7.90;99.90
16485;DHT22;8353;47.856;12.344;2023-04-15T05:58:06;7.90;99.90
16485;DHT22;8353;47.856;12.344;2023-04-15T06:00:53;7.90;99.90
16485;DHT22;8353;47.856;12.344;2023-04-15T06:03:40;8.00;99.90
16485;DHT22;8353;47.856;12.344;2023-04-15T06:06:27;7.90;99.90
16485;DHT22;8353;47.856;12.344;2023-04-15T06:09:14;7.90;99.90
16485;DHT22;8353;47.856;12.344;2023-04-15T06:12:02;7.90;99.90
16485;DHT22;8353;47.856;12.344;2023-04-15T06:14:51;7.90;99.90
16485;DHT22;8353;47.856;12.344;2023-04-15T06:17:37;7.80;99.90
16485;DHT22;8353;47.856;12.344;2023-04-15T06:20:24;7.90;99.90
16485;DHT22;8353;47.856;12.344;2023-04-15T06:23:11;7.80;99.90
16485;DHT22;8353;47.856;12.344;2023-04-15T06:25:59;8.00;99.90
16485;DHT22;8353;47.856;12.344;2023-04-15T06:28:48;8.00;99.90
16485;DHT22;8353;47.856;12.344;2023-04-15T06:31:35;8.00;99.90
16485;DHT22;8353;47.856;12.344;2023-04-15T06:34:22;8.10;99.90
16485;DHT22;8353;47.856;12.344;2023-04-15T06:37:08;8.20;99.90
16485;DHT22;8353;47.856;12.344;2023-04-15T06:40:00;8.10;99.90
16485;DHT22;8353;47.856;12.344;2023-04-15T06:42:47;8.20;99.90
16485;DHT22;8353;47.856;12.344;2023-04-15T06:45:35;8.20;99.90
16485;DHT22;8353;47.856;12.344;2023-04-15T06:48:23;8.20;99.90
16485;DHT22;8353;47.856;12.344;2023-04-15T06:51:10;8.20;99.90
16485;DHT22;8353;47.856;12.344;2023-04-15T06:53:57;8.30;99.90
16485;DHT22;8353;47.856;12.344;2023-04-15T06:56:44;8.40;99.90
16485;DHT22;8353;47.856;12.344;2023-04-15T06:59:31;8.40;99.90
16485;DHT22;8353;47.856;12.344;2023-04-15T07:02:20;8.50;99.90
16485;DHT22;8353;47.856;12.344;2023-04-15T07:05:07;8.50;99.90
16485;DHT22;8353;47.856;12.344;2023-04-15T07:07:54;8.60;99.90
16485;DHT22;8353;47.856;12.344;2023-04-15T07:10:41;8.60;99.90
16485;DHT22;8353;47.856;12.344;2023-04-15T07:13:30;8.60;99.90
16485;DHT22;8353;47.856;12.344;2023-04-15T07:16:17;8.70;99.90
16485;DHT22;8353;47.856;12.344;2023-04-15T07:19:06;8.80;99.90
16485;DHT22;8353;47.856;12.344;2023-04-15T07:21:53;8.80;99.90
16485;DHT22;8353;47.856;12.344;2023-04-15T07:24:40;8.90;99.90
16485;DHT22;8353;47.856;12.344;2023-04-15T07:27:28;9.00;99.90
16485;DHT22;8353;47.856;12.344;2023-04-15T07:30:15;8.90;99.90
16485;DHT22;8353;47.856;12.344;2023-04-15T07:33:02;9.00;99.90
16485;DHT22;8353;47.856;12.344;2023-04-15T07:35:51;9.00;99.90
16485;DHT22;8353;47.856;12.344;2023-04-15T07:38:41;9.00;99.90
16485;DHT22;8353;47.856;12.344;2023-04-15T07:41:28;9.00;99.90
16485;DHT22;8353;47.856;12.344;2023-04-15T07:44:15;9.00;99.90
16485;DHT22;8353;47.856;12.344;2023-04-15T07:47:02;9.10;99.90
16485;DHT22;8353;47.856;12.344;2023-04-15T07:49:49;9.00;99.90
16485;DHT22;8353;47.856;12.344;2023-04-15T07:52:38;9.00;99.90
16485;DHT22;8353;47.856;12.344;2023-04-15T07:55:25;8.90;99.90
16485;DHT22;8353;47.856;12.344;2023-04-15T07:58:12;9.10;99.90
16485;DHT22;8353;47.856;12.344;2023-04-15T08:00:59;9.10;99.90
16485;DHT22;8353;47.856;12.344;2023-04-15T08:03:46;9.10;99.90
16485;DHT22;8353;47.856;12.344;2023-04-15T08:06:33;9.10;99.90
16485;DHT22;8353;47.856;12.344;2023-04-15T08:09:22;9.10;99.90
16485;DHT22;8353;47.856;12.344;2023-04-15T08:12:09;9.10;99.90
16485;DHT22;8353;47.856;12.344;2023-04-15T08:14:58;9.10;99.90
16485;DHT22;8353;47.856;12.344;2023-04-15T08:17:45;9.10;99.90
16485;DHT22;8353;47.856;12.344;2023-04-15T08:20:32;9.10;99.90
16485;DHT22;8353;47.856;12.344;2023-04-15T08:23:19;9.00;99.90
16485;DHT22;8353;47.856;12.344;2023-04-15T08:26:07;9.00;99.90
16485;DHT22;8353;47.856;12.344;2023-04-15T08:28:54;9.00;99.90
16485;DHT22;8353;47.856;12.344;2023-04-15T08:31:41;9.10;99.90
16485;DHT22;8353;47.856;12.344;2023-04-15T08:34:29;9.20;99.90
16485;DHT22;8353;47.856;12.344;2023-04-15T08:37:16;9.20;99.90
16485;DHT22;8353;47.856;12.344;2023-04-15T08:40:03;9.30;99.90
16485;DHT22;8353;47.856;12.344;2023-04-15T08:42:55;9.30;99.90
16485;DHT22;8353;47.856;12.344;2023-04-15T08:45:43;9.30;99.90
16485;DHT22;8353;47.856;12.344;2023-04-15T08:48:32;9.40;99.90
16485;DHT22;8353;47.856;12.344;2023-04-15T08:51:20;9.30;99.90
16485;DHT22;8353;47.856;12.344;2023-04-15T08:54:08;9.30;99.90
16485;DHT22;8353;47.856;12.344;2023-04-15T08:56:56;9.30;99.90
16485;DHT22;8353;47.856;12.344;2023-04-15T08:59:45;9.30;99.90
16485;DHT22;8353;47.856;12.344;2023-04-15T09:02:32;9.30;99.90
16485;DHT22;8353;47.856;12.344;2023-04-15T09:05:19;9.20;99.90
16485;DHT22;8353;47.856;12.344;2023-04-15T09:08:07;9.10;99.90
16485;DHT22;8353;47.856;12.344;2023-04-15T09:10:54;9.00;99.90
16485;DHT22;8353;47.856;12.344;2023-04-15T09:13:41;9.00;99.90
16485;DHT22;8353;47.856;12.344;2023-04-15T09:16:29;9.10;99.90
16485;DHT22;8353;47.856;12.344;2023-04-15T09:19:20;9.10;99.90
16485;DHT22;8353;47.856;12.344;2023-04-15T09:22:07;9.00;99.90
16485;DHT22;8353;47.856;12.344;2023-04-15T09:24:54;9.10;99.90
16485;DHT22;8353;47.856;12.344;2023-04-15T09:27:47;9.10;99.90
16485;DHT22;8353;47.856;12.344;2023-04-15T09:30:34;9.10;99.90
16485;DHT22;8353;47.856;12.344;2023-04-15T09:33:23;9.20;99.90
16485;DHT22;8353;47.856;12.344;2023-04-15T09:36:10;9.30;99.90
16485;DHT22;8353;47.856;12.344;2023-04-15T09:38:58;9.20;99.90
16485;DHT22;8353;47.856;12.344;2023-04-15T09:41:47;9.30;99.90
16485;DHT22;8353;47.856;12.344;2023-04-15T09:44:49;9.40;99.90
16485;DHT22;8353;47.856;12.344;2023-04-15T09:47:37;9.40;99.90
16485;DHT22;8353;47.856;12.344;2023-04-15T09:50:28;9.40;99.90
16485;DHT22;8353;47.856;12.344;2023-04-15T09:53:16;9.40;99.90
16485;DHT22;8353;47.856;12.344;2023-04-15T09:56:04;9.40;99.90
16485;DHT22;8353;47.856;12.344;2023-04-15T09:58:55;9.30;99.90
16485;DHT22;8353;47.856;12.344;2023-04-15T10:01:43;9.30;99.90
16485;DHT22;8353;47.856;12.344;2023-04-15T10:04:33;9.40;99.90
16485;DHT22;8353;47.856;12.344;2023-04-15T10:07:24;9.40;99.90
16485;DHT22;8353;47.856;12.344;2023-04-15T10:10:11;9.50;99.90
16485;DHT22;8353;47.856;12.344;2023-04-15T10:12:58;9.60;99.90
16485;DHT22;8353;47.856;12.344;2023-04-15T10:15:50;9.60;99.90
16485;DHT22;8353;47.856;12.344;2023-04-15T10:18:41;9.70;99.90
16485;DHT22;8353;47.856;12.344;2023-04-15T10:21:29;9.80;99.90
16485;DHT22;8353;47.856;12.344;2023-04-15T10:24:18;9.90;99.90
16485;DHT22;8353;47.856;12.344;2023-04-15T10:27:06;9.70;99.90
16485;DHT22;8353;47.856;12.344;2023-04-15T10:29:53;9.80;99.90
16485;DHT22;8353;47.856;12.344;2023-04-15T10:32:41;9.80;99.90
16485;DHT22;8353;47.856;12.344;2023-04-15T10:35:30;9.80;99.90
16485;DHT22;8353;47.856;12.344;2023-04-15T10:38:32;9.90;99.90
16485;DHT22;8353;47.856;12.344;2023-04-15T10:41:21;10.00;99.90
16485;DHT22;8353;47.856;12.344;2023-04-15T10:44:09;10.00;99.90
16485;DHT22;8353;47.856;12.344;2023-04-15T10:46:57;9.80;99.90
16485;DHT22;8353;47.856;12.344;2023-04-15T10:49:48;9.60;99.90
16485;DHT22;8353;47.856;12.344;2023-04-15T10:52:39;9.30;99.90
16485;DHT22;8353;47.856;12.344;2023-04-15T10:55:31;9.20;99.90
16485;DHT22;8353;47.856;12.344;2023-04-15T10:58:22;9.00;99.90
16485;DHT22;8353;47.856;12.344;2023-04-15T11:01:09;8.90;99.90
16485;DHT22;8353;47.856;12.344;2023-04-15T11:03:56;8.90;99.90
16485;DHT22;8353;47.856;12.344;2023-04-15T11:06:43;9.00;99.90
16485;DHT22;8353;47.856;12.344;2023-04-15T11:09:31;9.20;99.90
16485;DHT22;8353;47.856;12.344;2023-04-15T11:12:18;9.30;99.90
16485;DHT22;8353;47.856;12.344;2023-04-15T11:15:27;9.50;99.90
16485;DHT22;8353;47.856;12.344;2023-04-15T11:18:16;9.70;99.90
16485;DHT22;8353;47.856;12.344;2023-04-15T11:21:05;9.80;99.90
16485;DHT22;8353;47.856;12.344;2023-04-15T11:23:52;9.80;99.90
16485;DHT22;8353;47.856;12.344;2023-04-15T11:26:39;9.90;99.90
16485;DHT22;8353;47.856;12.344;2023-04-15T11:29:28;10.00;99.90
16485;DHT22;8353;47.856;12.344;2023-04-15T11:32:17;10.00;99.90
16485;DHT22;8353;47.856;12.344;2023-04-15T11:35:04;10.10;99.90
16485;DHT22;8353;47.856;12.344;2023-04-15T11:37:51;10.00;99.90
16485;DHT22;8353;47.856;12.344;2023-04-15T11:40:40;10.10;99.90
16485;DHT22;8353;47.856;12.344;2023-04-15T11:43:31;10.20;99.90
16485;DHT22;8353;47.856;12.344;2023-04-15T11:46:20;10.30;99.90
16485;DHT22;8353;47.856;12.344;2023-04-15T11:49:08;10.40;99.90
16485;DHT22;8353;47.856;12.344;2023-04-15T11:51:55;10.50;99.90
16485;DHT22;8353;47.856;12.344;2023-04-15T11:54:42;10.60;99.90
16485;DHT22;8353;47.856;12.344;2023-04-15T11:57:30;10.70;99.90
16485;DHT22;8353;47.856;12.344;2023-04-15T12:00:19;10.80;99.90
16485;DHT22;8353;47.856;12.344;2023-04-15T12:03:21;10.80;99.90
16485;DHT22;8353;47.856;12.344;2023-04-15T12:06:15;10.90;99.90
16485;DHT22;8353;47.856;12.344;2023-04-15T12:09:09;10.80;99.90
16485;DHT22;8353;47.856;12.344;2023-04-15T12:11:57;10.80;99.90
16485;DHT22;8353;47.856;12.344;2023-04-15T12:14:44;10.80;99.90
16485;DHT22;8353;47.856;12.344;2023-04-15T12:17:33;10.80;99.90
16485;DHT22;8353;47.856;12.344;2023-04-15T12:20:23;10.80;99.90
16485;DHT22;8353;47.856;12.344;2023-04-15T12:23:12;10.70;99.90
16485;DHT22;8353;47.856;12.344;2023-04-15T12:26:04;10.70;99.90
16485;DHT22;8353;47.856;12.344;2023-04-15T12:28:53;10.70;99.90
16485;DHT22;8353;47.856;12.344;2023-04-15T12:31:48;10.70;99.90
16485;DHT22;8353;47.856;12.344;2023-04-15T12:34:37;10.90;99.90
16485;DHT22;8353;47.856;12.344;2023-04-15T12:37:24;11.00;99.90
16485;DHT22;8353;47.856;12.344;2023-04-15T12:40:13;10.90;99.90
16485;DHT22;8353;47.856;12.344;2023-04-15T12:42:59;10.90;99.90
16485;DHT22;8353;47.856;12.344;2023-04-15T12:45:46;10.80;99.90
16485;DHT22;8353;47.856;12.344;2023-04-15T12:48:33;10.80;99.90
16485;DHT22;8353;47.856;12.344;2023-04-15T12:51:20;10.70;99.90
16485;DHT22;8353;47.856;12.344;2023-04-15T12:54:07;10.80;99.90
16485;DHT22;8353;47.856;12.344;2023-04-15T12:56:55;10.80;99.90
16485;DHT22;8353;47.856;12.344;2023-04-15T12:59:42;10.80;99.90
16485;DHT22;8353;47.856;12.344;2023-04-15T13:02:30;10.80;99.90
16485;DHT22;8353;47.856;12.344;2023-04-15T13:05:17;10.80;99.90
16485;DHT22;8353;47.856;12.344;2023-04-15T13:08:04;10.80;99.90
16485;DHT22;8353;47.856;12.344;2023-04-15T13:10:51;10.80;99.90
16485;DHT22;8353;47.856;12.344;2023-04-15T13:13:39;10.80;99.90
16485;DHT22;8353;47.856;12.344;2023-04-15T13:16:27;10.80;99.90
16485;DHT22;8353;47.856;12.344;2023-04-15T13:19:13;10.80;99.90
16485;DHT22;8353;47.856;12.344;2023-04-15T13:22:01;10.80;99.90
16485;DHT22;8353;47.856;12.344;2023-04-15T13:24:48;10.90;99.90
16485;DHT22;8353;47.856;12.344;2023-04-15T13:27:36;11.00;99.90
16485;DHT22;8353;47.856;12.344;2023-04-15T13:30:24;11.00;99.90
16485;DHT22;8353;47.856;12.344;2023-04-15T13:33:12;10.90;99.90
16485;DHT22;8353;47.856;12.344;2023-04-15T13:35:59;10.80;99.90
16485;DHT22;8353;47.856;12.344;2023-04-15T13:38:45;10.80;99.90
16485;DHT22;8353;47.856;12.344;2023-04-15T13:41:32;10.90;99.90
16485;DHT22;8353;47.856;12.344;2023-04-15T13:44:19;10.90;99.90
16485;DHT22;8353;47.856;12.344;2023-04-15T13:47:07;10.80;99.90
16485;DHT22;8353;47.856;12.344;2023-04-15T13:49:54;10.90;99.90
16485;DHT22;8353;47.856;12.344;2023-04-15T13:52:41;10.90;99.90
16485;DHT22;8353;47.856;12.344;2023-04-15T13:55:28;10.90;99.90
16485;DHT22;8353;47.856;12.344;2023-04-15T13:58:15;10.70;99.90
16485;DHT22;8353;47.856;12.344;2023-04-15T14:01:03;10.50;99.90
16485;DHT22;8353;47.856;12.344;2023-04-15T14:03:52;10.50;99.90
16485;DHT22;8353;47.856;12.344;2023-04-15T14:06:39;10.50;99.90
16485;DHT22;8353;47.856;12.344;2023-04-15T14:09:26;10.50;99.90
16485;DHT22;8353;47.856;12.344;2023-04-15T14:12:13;10.40;99.90
16485;DHT22;8353;47.856;12.344;2023-04-15T14:15:00;10.40;99.90
16485;DHT22;8353;47.856;12.344;2023-04-15T14:17:47;10.40;99.90
16485;DHT22;8353;47.856;12.344;2023-04-15T14:20:35;10.40;99.90
16485;DHT22;8353;47.856;12.344;2023-04-15T14:23:24;10.30;99.90
16485;DHT22;8353;47.856;12.344;2023-04-15T14:26:12;10.30;99.90
16485;DHT22;8353;47.856;12.344;2023-04-15T14:28:59;10.30;99.90
16485;DHT22;8353;47.856;12.344;2023-04-15T14:31:46;10.20;99.90
16485;DHT22;8353;47.856;12.344;2023-04-15T14:34:34;10.20;99.90
16485;DHT22;8353;47.856;12.344;2023-04-15T14:37:22;10.20;99.90
16485;DHT22;8353;47.856;12.344;2023-04-15T14:40:10;10.20;99.90
16485;DHT22;8353;47.856;12.344;2023-04-15T14:42:57;10.30;99.90
16485;DHT22;8353;47.856;12.344;2023-04-15T14:45:46;10.20;99.90
16485;DHT22;8353;47.856;12.344;2023-04-15T14:48:33;10.20;99.90
16485;DHT22;8353;47.856;12.344;2023-04-15T14:51:20;10.20;99.90
16485;DHT22;8353;47.856;12.344;2023-04-15T14:54:08;10.10;99.90
16485;DHT22;8353;47.856;12.344;2023-04-15T14:56:57;10.10;99.90
16485;DHT22;8353;47.856;12.344;2023-04-15T14:59:46;10.10;99.90
16485;DHT22;8353;47.856;12.344;2023-04-15T15:02:33;10.10;99.90
16485;DHT22;8353;47.856;12.344;2023-04-15T15:05:22;10.10;99.90
16485;DHT22;8353;47.856;12.344;2023-04-15T15:08:12;10.10;99.90
16485;DHT22;8353;47.856;12.344;2023-04-15T15:11:01;10.10;99.90
16485;DHT22;8353;47.856;12.344;2023-04-15T15:13:48;10.10;99.90
16485;DHT22;8353;47.856;12.344;2023-04-15T15:16:36;10.10;99.90
16485;DHT22;8353;47.856;12.344;2023-04-15T15:19:23;10.00;99.90
16485;DHT22;8353;47.856;12.344;2023-04-15T15:22:10;10.00;99.90
16485;DHT22;8353;47.856;12.344;2023-04-15T15:24:56;10.10;99.90
16485;DHT22;8353;47.856;12.344;2023-04-15T15:27:47;10.10;99.90
16485;DHT22;8353;47.856;12.344;2023-04-15T15:30:34;10.10;99.90
16485;DHT22;8353;47.856;12.344;2023-04-15T15:33:20;10.00;99.90
16485;DHT22;8353;47.856;12.344;2023-04-15T15:36:08;9.90;99.90
16485;DHT22;8353;47.856;12.344;2023-04-15T15:38:56;9.90;99.90
16485;DHT22;8353;47.856;12.344;2023-04-15T15:41:43;10.00;99.90
16485;DHT22;8353;47.856;12.344;2023-04-15T15:44:31;9.90;99.90
16485;DHT22;8353;47.856;12.344;2023-04-15T15:47:18;9.80;99.90
16485;DHT22;8353;47.856;12.344;2023-04-15T15:50:05;9.80;99.90
16485;DHT22;8353;47.856;12.344;2023-04-15T15:52:52;9.80;99.90
16485;DHT22;8353;47.856;12.344;2023-04-15T15:55:42;9.80;99.90
16485;DHT22;8353;47.856;12.344;2023-04-15T15:58:29;9.80;99.90
16485;DHT22;8353;47.856;12.344;2023-04-15T16:01:18;9.80;99.90
16485;DHT22;8353;47.856;12.344;2023-04-15T16:04:05;9.80;99.90
16485;DHT22;8353;47.856;12.344;2023-04-15T16:06:54;9.80;99.90
16485;DHT22;8353;47.856;12.344;2023-04-15T16:09:41;9.80;99.90
16485;DHT22;8353;47.856;12.344;2023-04-15T16:12:28;9.90;99.90
16485;DHT22;8353;47.856;12.344;2023-04-15T16:15:15;9.90;99.90
16485;DHT22;8353;47.856;12.344;2023-04-15T16:18:03;9.80;99.90
16485;DHT22;8353;47.856;12.344;2023-04-15T16:20:50;9.80;99.90
16485;DHT22;8353;47.856;12.344;2023-04-15T16:23:37;9.80;99.90
16485;DHT22;8353;47.856;12.344;2023-04-15T16:26:24;9.70;99.90
16485;DHT22;8353;47.856;12.344;2023-04-15T16:29:11;9.70;99.90
16485;DHT22;8353;47.856;12.344;2023-04-15T16:31:58;9.70;99.90
16485;DHT22;8353;47.856;12.344;2023-04-15T16:34:46;9.60;99.90
16485;DHT22;8353;47.856;12.344;2023-04-15T16:37:33;9.60;99.90
16485;DHT22;8353;47.856;12.344;2023-04-15T16:40:20;9.60;99.90
16485;DHT22;8353;47.856;12.344;2023-04-15T16:43:07;9.60;99.90
16485;DHT22;8353;47.856;12.344;2023-04-15T16:45:55;9.60;99.90
16485;DHT22;8353;47.856;12.344;2023-04-15T16:48:42;9.60;99.90
16485;DHT22;8353;47.856;12.344;2023-04-15T16:51:31;9.60;99.90
16485;DHT22;8353;47.856;12.344;2023-04-15T16:54:18;9.70;99.90
16485;DHT22;8353;47.856;12.344;2023-04-15T16:57:05;9.70;99.90
16485;DHT22;8353;47.856;12.344;2023-04-15T16:59:54;9.70;99.90
16485;DHT22;8353;47.856;12.344;2023-04-15T17:02:41;9.70;99.90
16485;DHT22;8353;47.856;12.344;2023-04-15T17:05:28;9.80;99.90
16485;DHT22;8353;47.856;12.344;2023-04-15T17:08:16;9.80;99.90
16485;DHT22;8353;47.856;12.344;2023-04-15T17:11:03;9.80;99.90
16485;DHT22;8353;47.856;12.344;2023-04-15T17:13:50;9.70;99.90
16485;DHT22;8353;47.856;12.344;2023-04-15T17:16:38;9.70;99.90
16485;DHT22;8353;47.856;12.344;2023-04-15T17:19:26;9.70;99.90
16485;DHT22;8353;47.856;12.344;2023-04-15T17:22:13;9.70;99.90
16485;DHT22;8353;47.856;12.344;2023-04-15T17:25:01;9.70;99.90
16485;DHT22;8353;47.856;12.344;2023-04-15T17:27:49;9.70;99.90
16485;DHT22;8353;47.856;12.344;2023-04-15T17:30:36;9.70;99.90
16485;DHT22;8353;47.856;12.344;2023-04-15T17:33:22;9.70;99.90
16485;DHT22;8353;47.856;12.344;2023-04-15T17:36:10;9.60;99.90
16485;DHT22;8353;47.856;12.344;2023-04-15T17:38:57;9.60;99.90
16485;DHT22;8353;47.856;12.344;2023-04-15T17:41:45;9.50;99.90
16485;DHT22;8353;47.856;12.344;2023-04-15T17:44:33;9.40;99.90
16485;DHT22;8353;47.856;12.344;2023-04-15T17:47:20;9.40;99.90
16485;DHT22;8353;47.856;12.344;2023-04-15T17:50:08;9.40;99.90
16485;DHT22;8353;47.856;12.344;2023-04-15T17:52:55;9.50;99.90